sensor_id;sensor_type;location;lat;lon;timestamp;P1;durP1;ratioP1;P2;durP2;ratioP2
69170;SDS011;56279;47.902;12.308;2023-12-22T00:02:00;1.48;;;1.08;;
69170;SDS011;56279;47.902;12.308;2023-12-22T00:04:01;2.45;;;1.00;;
69170;SDS011;56279;47.902;12.308;2023-12-22T00:06:03;1.10;;;1.00;;
69170;SDS011;56279;47.902;12.308;2023-12-22T00:08:04;0.70;;;0.70;;
69170;SDS011;56279;47.902;12.308;2023-12-22T00:10:06;1.00;;;0.90;;
69170;SDS011;56279;47.902;12.308;2023-12-22T00:12:07;0.80;;;0.80;;
69170;SDS011;56279;47.902;12.308;2023-12-22T00:14:09;1.48;;;0.88;;
69170;SDS011;56279;47.902;12.308;2023-12-22T00:16:10;1.13;;;0.90;;
69170;SDS011;56279;47.902;12.308;2023-12-22T00:18:12;1.10;;;1.00;;
69170;SDS011;56279;47.902;12.308;2023-12-22T00:20:14;1.23;;;0.90;;
69170;SDS011;56279;47.902;12.308;2023-12-22T00:22:15;1.00;;;0.88;;
69170;SDS011;56279;47.902;12.308;2023-12-22T00:24:16;1.55;;;1.00;;
69170;SDS011;56279;47.902;12.308;2023-12-22T00:26:18;2.78;;;1.00;;
69170;SDS011;56279;47.902;12.308;2023-12-22T00:28:19;0.90;;;0.90;;
69170;SDS011;56279;47.902;12.308;2023-12-22T00:30:20;1.02;;;0.93;;
69170;SDS011;56279;47.902;12.308;2023-12-22T00:32:21;2.00;;;1.00;;
69170;SDS011;56279;47.902;12.308;2023-12-22T00:34:23;1.90;;;1.00;;
69170;SDS011;56279;47.902;12.308;2023-12-22T00:36:24;4.18;;;1.10;;
69170;SDS011;56279;47.902;12.308;2023-12-22T00:38:25;2.17;;;1.10;;
69170;SDS011;56279;47.902;12.308;2023-12-22T00:40:26;2.33;;;1.10;;
69170;SDS011;56279;47.902;12.308;2023-12-22T00:42:28;1.65;;;1.02;;
69170;SDS011;56279;47.902;12.308;2023-12-22T00:44:29;1.55;;;0.90;;
69170;SDS011;56279;47.902;12.308;2023-12-22T00:46:30;2.15;;;1.00;;
69170;SDS011;56279;47.902;12.308;2023-12-22T00:48:32;3.50;;;1.10;;
69170;SDS011;56279;47.902;12.308;2023-12-22T00:50:33;0.98;;;0.88;;
69170;SDS011;56279;47.902;12.308;2023-12-22T00:52:35;4.82;;;0.90;;
69170;SDS011;56279;47.902;12.308;2023-12-22T00:54:36;0.93;;;0.90;;
69170;SDS011;56279;47.902;12.308;2023-12-22T00:56:37;1.10;;;0.90;;
69170;SDS011;56279;47.902;12.308;2023-12-22T00:58:39;1.77;;;0.97;;
69170;SDS011;56279;47.902;12.308;2023-12-22T01:00:40;0.98;;;0.90;;
69170;SDS011;56279;47.902;12.308;2023-12-22T01:02:42;1.02;;;0.90;;
69170;SDS011;56279;47.902;12.308;2023-12-22T01:04:43;1.95;;;1.05;;
69170;SDS011;56279;47.902;12.308;2023-12-22T01:06:45;2.03;;;1.00;;
69170;SDS011;56279;47.902;12.308;2023-12-22T01:08:46;1.10;;;0.90;;
69170;SDS011;56279;47.902;12.308;2023-12-22T01:10:50;3.65;;;1.10;;
69170;SDS011;56279;47.902;12.308;2023-12-22T01:12:53;1.20;;;1.10;;
69170;SDS011;56279;47.902;12.308;2023-12-22T01:14:55;2.20;;;1.45;;
69170;SDS011;56279;47.902;12.308;2023-12-22T01:16:57;0.90;;;0.90;;
69170;SDS011;56279;47.902;12.308;2023-12-22T01:19:00;1.50;;;0.90;;
69170;SDS011;56279;47.902;12.308;2023-12-22T01:21:02;0.98;;;0.82;;
69170;SDS011;56279;47.902;12.308;2023-12-22T01:23:03;0.93;;;0.90;;
69170;SDS011;56279;47.902;12.308;2023-12-22T01:25:05;0.85;;;0.85;;
69170;SDS011;56279;47.902;12.308;2023-12-22T01:27:06;2.45;;;0.98;;
69170;SDS011;56279;47.902;12.308;2023-12-22T01:29:08;1.27;;;0.90;;
69170;SDS011;56279;47.902;12.308;2023-12-22T01:31:09;1.15;;;0.82;;
69170;SDS011;56279;47.902;12.308;2023-12-22T01:33:11;0.93;;;0.88;;
69170;SDS011;56279;47.902;12.308;2023-12-22T01:35:12;1.00;;;0.90;;
69170;SDS011;56279;47.902;12.308;2023-12-22T01:37:13;0.95;;;0.88;;
69170;SDS011;56279;47.902;12.308;2023-12-22T01:39:15;1.00;;;0.90;;
69170;SDS011;56279;47.902;12.308;2023-12-22T01:41:17;1.80;;;1.10;;
69170;SDS011;56279;47.902;12.308;2023-12-22T01:43:18;1.92;;;1.10;;
69170;SDS011;56279;47.902;12.308;2023-12-22T01:45:22;1.20;;;1.10;;
69170;SDS011;56279;47.902;12.308;2023-12-22T01:47:23;1.77;;;0.90;;
69170;SDS011;56279;47.902;12.308;2023-12-22T01:49:25;0.80;;;0.80;;
69170;SDS011;56279;47.902;12.308;2023-12-22T01:51:28;0.93;;;0.82;;
69170;SDS011;56279;47.902;12.308;2023-12-22T01:53:33;1.60;;;1.00;;
69170;SDS011;56279;47.902;12.308;2023-12-22T01:55:35;1.00;;;0.80;;
69170;SDS011;56279;47.902;12.308;2023-12-22T01:57:36;1.67;;;1.00;;
69170;SDS011;56279;47.902;12.308;2023-12-22T01:59:38;1.87;;;1.00;;
69170;SDS011;56279;47.902;12.308;2023-12-22T02:01:40;2.05;;;1.00;;
69170;SDS011;56279;47.902;12.308;2023-12-22T02:03:42;2.58;;;1.40;;
69170;SDS011;56279;47.902;12.308;2023-12-22T02:05:43;4.80;;;1.63;;
69170;SDS011;56279;47.902;12.308;2023-12-22T02:07:45;3.83;;;1.60;;
69170;SDS011;56279;47.902;12.308;2023-12-22T02:09:46;2.67;;;1.20;;
69170;SDS011;56279;47.902;12.308;2023-12-22T02:11:48;2.35;;;1.10;;
69170;SDS011;56279;47.902;12.308;2023-12-22T02:13:49;2.00;;;1.20;;
69170;SDS011;56279;47.902;12.308;2023-12-22T02:15:52;2.58;;;1.02;;
69170;SDS011;56279;47.902;12.308;2023-12-22T02:18:14;3.00;;;1.60;;
69170;SDS011;56279;47.902;12.308;2023-12-22T02:20:21;3.13;;;1.73;;
69170;SDS011;56279;47.902;12.308;2023-12-22T02:22:22;4.25;;;1.40;;
69170;SDS011;56279;47.902;12.308;2023-12-22T02:24:24;1.95;;;1.13;;
69170;SDS011;56279;47.902;12.308;2023-12-22T02:26:36;1.50;;;0.95;;
69170;SDS011;56279;47.902;12.308;2023-12-22T02:28:45;1.73;;;1.20;;
69170;SDS011;56279;47.902;12.308;2023-12-22T02:30:59;2.43;;;1.10;;
69170;SDS011;56279;47.902;12.308;2023-12-22T02:33:12;1.88;;;1.08;;
69170;SDS011;56279;47.902;12.308;2023-12-22T02:35:19;2.72;;;1.40;;
69170;SDS011;56279;47.902;12.308;2023-12-22T02:37:22;1.60;;;1.10;;
69170;SDS011;56279;47.902;12.308;2023-12-22T02:39:25;2.42;;;1.10;;
69170;SDS011;56279;47.902;12.308;2023-12-22T02:41:26;2.00;;;1.10;;
69170;SDS011;56279;47.902;12.308;2023-12-22T02:43:28;1.15;;;1.00;;
69170;SDS011;56279;47.902;12.308;2023-12-22T02:45:29;3.03;;;2.22;;
69170;SDS011;56279;47.902;12.308;2023-12-22T02:47:31;1.30;;;1.10;;
69170;SDS011;56279;47.902;12.308;2023-12-22T02:49:34;2.85;;;1.20;;
69170;SDS011;56279;47.902;12.308;2023-12-22T02:51:35;1.43;;;0.90;;
69170;SDS011;56279;47.902;12.308;2023-12-22T02:53:36;1.13;;;0.95;;
69170;SDS011;56279;47.902;12.308;2023-12-22T02:55:38;1.63;;;0.90;;
69170;SDS011;56279;47.902;12.308;2023-12-22T02:57:39;1.95;;;1.20;;
69170;SDS011;56279;47.902;12.308;2023-12-22T02:59:40;1.13;;;1.02;;
69170;SDS011;56279;47.902;12.308;2023-12-22T03:01:42;1.80;;;1.10;;
69170;SDS011;56279;47.902;12.308;2023-12-22T03:03:43;3.42;;;1.50;;
69170;SDS011;56279;47.902;12.308;2023-12-22T03:05:44;1.33;;;1.10;;
69170;SDS011;56279;47.902;12.308;2023-12-22T03:07:46;1.17;;;0.98;;
69170;SDS011;56279;47.902;12.308;2023-12-22T03:09:47;1.20;;;1.10;;
69170;SDS011;56279;47.902;12.308;2023-12-22T03:11:49;1.10;;;0.90;;
69170;SDS011;56279;47.902;12.308;2023-12-22T03:13:52;1.35;;;1.05;;
69170;SDS011;56279;47.902;12.308;2023-12-22T03:15:54;1.58;;;1.15;;
69170;SDS011;56279;47.902;12.308;2023-12-22T03:17:55;1.83;;;1.17;;
69170;SDS011;56279;47.902;12.308;2023-12-22T03:19:57;9.18;;;2.67;;
69170;SDS011;56279;47.902;12.308;2023-12-22T03:21:58;6.17;;;2.97;;
69170;SDS011;56279;47.902;12.308;2023-12-22T03:24:00;3.22;;;1.45;;
69170;SDS011;56279;47.902;12.308;2023-12-22T03:26:04;1.10;;;1.00;;
69170;SDS011;56279;47.902;12.308;2023-12-22T03:28:06;1.27;;;1.00;;
69170;SDS011;56279;47.902;12.308;2023-12-22T03:30:08;3.25;;;1.33;;
69170;SDS011;56279;47.902;12.308;2023-12-22T03:32:09;1.73;;;1.30;;
69170;SDS011;56279;47.902;12.308;2023-12-22T03:34:11;1.58;;;1.10;;
69170;SDS011;56279;47.902;12.308;2023-12-22T03:36:12;1.80;;;1.50;;
69170;SDS011;56279;47.902;12.308;2023-12-22T03:38:14;2.72;;;2.05;;
69170;SDS011;56279;47.902;12.308;2023-12-22T03:40:15;1.70;;;1.33;;
69170;SDS011;56279;47.902;12.308;2023-12-22T03:42:16;1.60;;;1.13;;
69170;SDS011;56279;47.902;12.308;2023-12-22T03:44:18;2.38;;;1.23;;
69170;SDS011;56279;47.902;12.308;2023-12-22T03:46:19;1.63;;;1.35;;
69170;SDS011;56279;47.902;12.308;2023-12-22T03:48:20;2.17;;;1.30;;
69170;SDS011;56279;47.902;12.308;2023-12-22T03:50:22;2.53;;;1.35;;
69170;SDS011;56279;47.902;12.308;2023-12-22T03:52:23;1.40;;;0.90;;
69170;SDS011;56279;47.902;12.308;2023-12-22T03:54:24;2.00;;;1.50;;
69170;SDS011;56279;47.902;12.308;2023-12-22T03:56:25;1.25;;;0.93;;
69170;SDS011;56279;47.902;12.308;2023-12-22T03:58:27;1.60;;;1.20;;
69170;SDS011;56279;47.902;12.308;2023-12-22T04:00:30;1.90;;;1.33;;
69170;SDS011;56279;47.902;12.308;2023-12-22T04:02:32;0.83;;;0.80;;
69170;SDS011;56279;47.902;12.308;2023-12-22T04:04:36;1.48;;;1.00;;
69170;SDS011;56279;47.902;12.308;2023-12-22T04:06:39;1.10;;;1.00;;
69170;SDS011;56279;47.902;12.308;2023-12-22T04:08:41;0.90;;;0.90;;
69170;SDS011;56279;47.902;12.308;2023-12-22T04:10:42;1.10;;;1.00;;
69170;SDS011;56279;47.902;12.308;2023-12-22T04:12:45;2.10;;;1.27;;
69170;SDS011;56279;47.902;12.308;2023-12-22T04:14:46;3.83;;;1.52;;
69170;SDS011;56279;47.902;12.308;2023-12-22T04:16:47;1.40;;;1.08;;
69170;SDS011;56279;47.902;12.308;2023-12-22T04:18:49;2.88;;;1.23;;
69170;SDS011;56279;47.902;12.308;2023-12-22T04:20:50;2.15;;;1.20;;
69170;SDS011;56279;47.902;12.308;2023-12-22T04:22:54;1.27;;;1.10;;
69170;SDS011;56279;47.902;12.308;2023-12-22T04:24:56;2.40;;;1.60;;
69170;SDS011;56279;47.902;12.308;2023-12-22T04:26:57;1.50;;;1.20;;
69170;SDS011;56279;47.902;12.308;2023-12-22T04:28:58;1.48;;;1.20;;
69170;SDS011;56279;47.902;12.308;2023-12-22T04:31:00;1.67;;;1.20;;
69170;SDS011;56279;47.902;12.308;2023-12-22T04:33:01;1.30;;;1.10;;
69170;SDS011;56279;47.902;12.308;2023-12-22T04:35:03;2.30;;;1.60;;
69170;SDS011;56279;47.902;12.308;2023-12-22T04:37:04;2.40;;;1.60;;
69170;SDS011;56279;47.902;12.308;2023-12-22T04:39:05;2.15;;;1.50;;
69170;SDS011;56279;47.902;12.308;2023-12-22T04:41:07;3.72;;;1.67;;
69170;SDS011;56279;47.902;12.308;2023-12-22T04:43:08;3.77;;;2.00;;
69170;SDS011;56279;47.902;12.308;2023-12-22T04:45:10;1.95;;;1.40;;
69170;SDS011;56279;47.902;12.308;2023-12-22T04:47:11;4.03;;;2.38;;
69170;SDS011;56279;47.902;12.308;2023-12-22T04:49:13;2.38;;;1.30;;
69170;SDS011;56279;47.902;12.308;2023-12-22T04:51:15;1.92;;;1.30;;
69170;SDS011;56279;47.902;12.308;2023-12-22T04:53:16;1.57;;;1.20;;
69170;SDS011;56279;47.902;12.308;2023-12-22T04:55:17;1.63;;;0.98;;
69170;SDS011;56279;47.902;12.308;2023-12-22T04:57:18;1.55;;;1.20;;
69170;SDS011;56279;47.902;12.308;2023-12-22T04:59:20;0.90;;;0.90;;
69170;SDS011;56279;47.902;12.308;2023-12-22T05:01:21;2.33;;;1.20;;
69170;SDS011;56279;47.902;12.308;2023-12-22T05:03:22;3.53;;;1.10;;
69170;SDS011;56279;47.902;12.308;2023-12-22T05:05:24;1.13;;;1.00;;
69170;SDS011;56279;47.902;12.308;2023-12-22T05:07:25;2.78;;;1.30;;
69170;SDS011;56279;47.902;12.308;2023-12-22T05:09:26;2.22;;;1.40;;
69170;SDS011;56279;47.902;12.308;2023-12-22T05:11:32;1.23;;;1.13;;
69170;SDS011;56279;47.902;12.308;2023-12-22T05:13:33;4.30;;;1.33;;
69170;SDS011;56279;47.902;12.308;2023-12-22T05:15:35;2.45;;;1.50;;
69170;SDS011;56279;47.902;12.308;2023-12-22T05:17:36;3.13;;;1.60;;
69170;SDS011;56279;47.902;12.308;2023-12-22T05:19:41;2.72;;;1.48;;
69170;SDS011;56279;47.902;12.308;2023-12-22T05:21:43;3.30;;;1.20;;
69170;SDS011;56279;47.902;12.308;2023-12-22T05:23:44;2.17;;;1.17;;
69170;SDS011;56279;47.902;12.308;2023-12-22T05:25:45;1.65;;;1.10;;
69170;SDS011;56279;47.902;12.308;2023-12-22T05:27:47;1.90;;;1.05;;
69170;SDS011;56279;47.902;12.308;2023-12-22T05:29:48;1.95;;;1.17;;
69170;SDS011;56279;47.902;12.308;2023-12-22T05:31:49;3.58;;;1.23;;
69170;SDS011;56279;47.902;12.308;2023-12-22T05:33:50;1.70;;;1.30;;
69170;SDS011;56279;47.902;12.308;2023-12-22T05:35:52;1.35;;;1.10;;
69170;SDS011;56279;47.902;12.308;2023-12-22T05:37:53;3.83;;;1.63;;
69170;SDS011;56279;47.902;12.308;2023-12-22T05:39:54;1.30;;;1.00;;
69170;SDS011;56279;47.902;12.308;2023-12-22T05:41:56;2.55;;;1.25;;
69170;SDS011;56279;47.902;12.308;2023-12-22T05:43:58;2.17;;;1.30;;
69170;SDS011;56279;47.902;12.308;2023-12-22T05:46:00;2.97;;;1.60;;
69170;SDS011;56279;47.902;12.308;2023-12-22T05:48:01;1.50;;;1.20;;
69170;SDS011;56279;47.902;12.308;2023-12-22T05:50:03;1.50;;;1.10;;
69170;SDS011;56279;47.902;12.308;2023-12-22T05:52:05;3.00;;;1.13;;
69170;SDS011;56279;47.902;12.308;2023-12-22T05:54:07;3.17;;;1.50;;
69170;SDS011;56279;47.902;12.308;2023-12-22T05:56:18;5.35;;;1.27;;
69170;SDS011;56279;47.902;12.308;2023-12-22T05:58:20;2.67;;;1.15;;
69170;SDS011;56279;47.902;12.308;2023-12-22T06:00:22;3.58;;;1.23;;
69170;SDS011;56279;47.902;12.308;2023-12-22T06:02:24;3.08;;;1.08;;
69170;SDS011;56279;47.902;12.308;2023-12-22T06:04:26;2.33;;;1.20;;
69170;SDS011;56279;47.902;12.308;2023-12-22T06:06:28;2.05;;;1.10;;
69170;SDS011;56279;47.902;12.308;2023-12-22T06:08:30;3.33;;;1.50;;
69170;SDS011;56279;47.902;12.308;2023-12-22T06:10:34;2.22;;;1.40;;
69170;SDS011;56279;47.902;12.308;2023-12-22T06:12:35;2.67;;;1.40;;
69170;SDS011;56279;47.902;12.308;2023-12-22T06:14:39;1.90;;;1.00;;
69170;SDS011;56279;47.902;12.308;2023-12-22T06:16:40;2.95;;;1.20;;
69170;SDS011;56279;47.902;12.308;2023-12-22T06:18:42;2.53;;;1.33;;
69170;SDS011;56279;47.902;12.308;2023-12-22T06:20:43;1.63;;;1.20;;
69170;SDS011;56279;47.902;12.308;2023-12-22T06:22:45;2.53;;;1.40;;
69170;SDS011;56279;47.902;12.308;2023-12-22T06:24:46;3.67;;;1.13;;
69170;SDS011;56279;47.902;12.308;2023-12-22T06:26:47;1.38;;;1.02;;
69170;SDS011;56279;47.902;12.308;2023-12-22T06:28:49;3.10;;;1.33;;
69170;SDS011;56279;47.902;12.308;2023-12-22T06:30:50;3.45;;;1.13;;
69170;SDS011;56279;47.902;12.308;2023-12-22T06:32:51;1.35;;;1.10;;
69170;SDS011;56279;47.902;12.308;2023-12-22T06:34:53;2.60;;;1.10;;
69170;SDS011;56279;47.902;12.308;2023-12-22T06:36:54;1.48;;;1.00;;
69170;SDS011;56279;47.902;12.308;2023-12-22T06:38:55;3.28;;;1.50;;
69170;SDS011;56279;47.902;12.308;2023-12-22T06:40:58;2.10;;;1.10;;
69170;SDS011;56279;47.902;12.308;2023-12-22T06:42:59;4.90;;;1.15;;
69170;SDS011;56279;47.902;12.308;2023-12-22T06:45:01;1.10;;;0.90;;
69170;SDS011;56279;47.902;12.308;2023-12-22T06:47:02;1.10;;;1.00;;
69170;SDS011;56279;47.902;12.308;2023-12-22T06:49:05;2.08;;;1.20;;
69170;SDS011;56279;47.902;12.308;2023-12-22T06:51:07;1.10;;;1.00;;
69170;SDS011;56279;47.902;12.308;2023-12-22T06:53:08;1.38;;;1.08;;
69170;SDS011;56279;47.902;12.308;2023-12-22T06:55:10;2.03;;;1.70;;
69170;SDS011;56279;47.902;12.308;2023-12-22T06:57:11;1.65;;;1.20;;
69170;SDS011;56279;47.902;12.308;2023-12-22T06:59:13;2.05;;;1.20;;
69170;SDS011;56279;47.902;12.308;2023-12-22T07:01:20;3.17;;;1.17;;
69170;SDS011;56279;47.902;12.308;2023-12-22T07:03:22;1.67;;;1.10;;
69170;SDS011;56279;47.902;12.308;2023-12-22T07:05:30;1.83;;;1.20;;
69170;SDS011;56279;47.902;12.308;2023-12-22T07:07:32;2.30;;;1.20;;
69170;SDS011;56279;47.902;12.308;2023-12-22T07:09:34;2.05;;;1.30;;
69170;SDS011;56279;47.902;12.308;2023-12-22T07:11:37;2.28;;;1.30;;
69170;SDS011;56279;47.902;12.308;2023-12-22T07:13:38;2.00;;;1.20;;
69170;SDS011;56279;47.902;12.308;2023-12-22T07:15:40;1.20;;;1.10;;
69170;SDS011;56279;47.902;12.308;2023-12-22T07:17:41;2.30;;;1.30;;
69170;SDS011;56279;47.902;12.308;2023-12-22T07:19:43;4.57;;;1.20;;
69170;SDS011;56279;47.902;12.308;2023-12-22T07:21:44;1.95;;;1.38;;
69170;SDS011;56279;47.902;12.308;2023-12-22T07:23:46;1.58;;;1.27;;
69170;SDS011;56279;47.902;12.308;2023-12-22T07:25:47;2.27;;;1.20;;
69170;SDS011;56279;47.902;12.308;2023-12-22T07:27:49;4.57;;;1.67;;
69170;SDS011;56279;47.902;12.308;2023-12-22T07:29:51;3.75;;;1.50;;
69170;SDS011;56279;47.902;12.308;2023-12-22T07:31:53;3.95;;;1.30;;
69170;SDS011;56279;47.902;12.308;2023-12-22T07:33:54;2.15;;;1.25;;
69170;SDS011;56279;47.902;12.308;2023-12-22T07:35:55;3.23;;;1.30;;
69170;SDS011;56279;47.902;12.308;2023-12-22T07:37:57;2.25;;;1.20;;
69170;SDS011;56279;47.902;12.308;2023-12-22T07:39:58;4.80;;;1.30;;
69170;SDS011;56279;47.902;12.308;2023-12-22T07:41:59;3.35;;;1.25;;
69170;SDS011;56279;47.902;12.308;2023-12-22T07:44:01;2.38;;;1.40;;
69170;SDS011;56279;47.902;12.308;2023-12-22T07:46:03;2.20;;;1.50;;
69170;SDS011;56279;47.902;12.308;2023-12-22T07:48:05;5.28;;;1.52;;
69170;SDS011;56279;47.902;12.308;2023-12-22T07:50:06;14.38;;;5.32;;
69170;SDS011;56279;47.902;12.308;2023-12-22T07:52:09;7.43;;;2.08;;
69170;SDS011;56279;47.902;12.308;2023-12-22T07:54:11;3.58;;;1.40;;
69170;SDS011;56279;47.902;12.308;2023-12-22T07:56:12;4.60;;;1.40;;
69170;SDS011;56279;47.902;12.308;2023-12-22T07:58:14;1.92;;;1.30;;
69170;SDS011;56279;47.902;12.308;2023-12-22T08:00:15;3.88;;;1.40;;
69170;SDS011;56279;47.902;12.308;2023-12-22T08:02:18;5.00;;;2.65;;
69170;SDS011;56279;47.902;12.308;2023-12-22T08:04:19;5.40;;;1.90;;
69170;SDS011;56279;47.902;12.308;2023-12-22T08:06:20;3.30;;;1.17;;
69170;SDS011;56279;47.902;12.308;2023-12-22T08:08:22;6.28;;;1.30;;
69170;SDS011;56279;47.902;12.308;2023-12-22T08:10:23;5.30;;;1.42;;
69170;SDS011;56279;47.902;12.308;2023-12-22T08:12:25;3.45;;;1.30;;
69170;SDS011;56279;47.902;12.308;2023-12-22T08:14:27;3.22;;;1.30;;
69170;SDS011;56279;47.902;12.308;2023-12-22T08:16:28;3.90;;;1.50;;
69170;SDS011;56279;47.902;12.308;2023-12-22T08:18:29;1.55;;;1.27;;
69170;SDS011;56279;47.902;12.308;2023-12-22T08:20:30;5.30;;;1.75;;
69170;SDS011;56279;47.902;12.308;2023-12-22T08:22:32;1.58;;;0.73;;
69170;SDS011;56279;47.902;12.308;2023-12-22T08:24:33;1.50;;;1.10;;
69170;SDS011;56279;47.902;12.308;2023-12-22T08:26:34;1.63;;;1.07;;
69170;SDS011;56279;47.902;12.308;2023-12-22T08:28:35;2.15;;;1.15;;
69170;SDS011;56279;47.902;12.308;2023-12-22T08:30:37;2.25;;;1.42;;
69170;SDS011;56279;47.902;12.308;2023-12-22T08:32:38;1.85;;;1.08;;
69170;SDS011;56279;47.902;12.308;2023-12-22T08:34:39;2.92;;;1.35;;
69170;SDS011;56279;47.902;12.308;2023-12-22T08:36:41;2.93;;;1.00;;
69170;SDS011;56279;47.902;12.308;2023-12-22T08:38:42;1.38;;;0.90;;
69170;SDS011;56279;47.902;12.308;2023-12-22T08:40:44;1.52;;;1.00;;
69170;SDS011;56279;47.902;12.308;2023-12-22T08:42:46;1.70;;;1.33;;
69170;SDS011;56279;47.902;12.308;2023-12-22T08:44:48;2.00;;;1.20;;
69170;SDS011;56279;47.902;12.308;2023-12-22T08:46:49;1.47;;;0.80;;
69170;SDS011;56279;47.902;12.308;2023-12-22T08:48:50;2.92;;;1.20;;
69170;SDS011;56279;47.902;12.308;2023-12-22T08:50:52;1.52;;;1.00;;
69170;SDS011;56279;47.902;12.308;2023-12-22T08:52:53;2.33;;;1.17;;
69170;SDS011;56279;47.902;12.308;2023-12-22T08:54:54;2.55;;;1.10;;
69170;SDS011;56279;47.902;12.308;2023-12-22T08:56:56;1.97;;;1.20;;
69170;SDS011;56279;47.902;12.308;2023-12-22T08:58:57;1.92;;;1.48;;
69170;SDS011;56279;47.902;12.308;2023-12-22T09:01:01;1.75;;;1.13;;
69170;SDS011;56279;47.902;12.308;2023-12-22T09:03:02;1.60;;;1.05;;
69170;SDS011;56279;47.902;12.308;2023-12-22T09:05:04;1.67;;;1.17;;
69170;SDS011;56279;47.902;12.308;2023-12-22T09:07:08;6.37;;;2.80;;
69170;SDS011;56279;47.902;12.308;2023-12-22T09:09:10;2.08;;;1.20;;
69170;SDS011;56279;47.902;12.308;2023-12-22T09:11:12;1.85;;;1.20;;
69170;SDS011;56279;47.902;12.308;2023-12-22T09:13:15;1.40;;;1.02;;
69170;SDS011;56279;47.902;12.308;2023-12-22T09:15:16;2.08;;;1.30;;
69170;SDS011;56279;47.902;12.308;2023-12-22T09:17:17;2.10;;;1.13;;
69170;SDS011;56279;47.902;12.308;2023-12-22T09:19:19;3.55;;;1.60;;
69170;SDS011;56279;47.902;12.308;2023-12-22T09:21:20;2.47;;;1.42;;
69170;SDS011;56279;47.902;12.308;2023-12-22T09:23:21;2.60;;;1.52;;
69170;SDS011;56279;47.902;12.308;2023-12-22T09:25:23;2.55;;;1.42;;
69170;SDS011;56279;47.902;12.308;2023-12-22T09:27:25;2.43;;;1.43;;
69170;SDS011;56279;47.902;12.308;2023-12-22T09:29:31;3.65;;;1.42;;
69170;SDS011;56279;47.902;12.308;2023-12-22T09:31:36;8.32;;;1.52;;
69170;SDS011;56279;47.902;12.308;2023-12-22T09:33:37;1.90;;;1.20;;
69170;SDS011;56279;47.902;12.308;2023-12-22T09:35:40;3.90;;;1.73;;
69170;SDS011;56279;47.902;12.308;2023-12-22T09:37:42;1.60;;;1.20;;
69170;SDS011;56279;47.902;12.308;2023-12-22T09:39:44;4.90;;;1.30;;
69170;SDS011;56279;47.902;12.308;2023-12-22T09:41:47;3.65;;;1.40;;
69170;SDS011;56279;47.902;12.308;2023-12-22T09:43:49;2.47;;;1.20;;
69170;SDS011;56279;47.902;12.308;2023-12-22T09:45:52;3.20;;;1.30;;
69170;SDS011;56279;47.902;12.308;2023-12-22T09:47:53;5.30;;;1.83;;
69170;SDS011;56279;47.902;12.308;2023-12-22T09:49:57;2.47;;;1.30;;
69170;SDS011;56279;47.902;12.308;2023-12-22T09:51:59;4.45;;;1.90;;
69170;SDS011;56279;47.902;12.308;2023-12-22T09:54:04;3.58;;;1.33;;
69170;SDS011;56279;47.902;12.308;2023-12-22T09:56:06;3.80;;;1.23;;
69170;SDS011;56279;47.902;12.308;2023-12-22T09:58:08;2.50;;;1.40;;
69170;SDS011;56279;47.902;12.308;2023-12-22T10:00:11;1.98;;;1.30;;
69170;SDS011;56279;47.902;12.308;2023-12-22T10:02:13;3.25;;;1.63;;
69170;SDS011;56279;47.902;12.308;2023-12-22T10:04:14;3.10;;;1.70;;
69170;SDS011;56279;47.902;12.308;2023-12-22T10:06:16;2.28;;;1.38;;
69170;SDS011;56279;47.902;12.308;2023-12-22T10:08:18;6.20;;;2.83;;
69170;SDS011;56279;47.902;12.308;2023-12-22T10:10:20;5.45;;;2.08;;
69170;SDS011;56279;47.902;12.308;2023-12-22T10:12:22;3.40;;;1.40;;
69170;SDS011;56279;47.902;12.308;2023-12-22T10:14:25;3.15;;;1.52;;
69170;SDS011;56279;47.902;12.308;2023-12-22T10:16:27;2.05;;;1.30;;
69170;SDS011;56279;47.902;12.308;2023-12-22T10:18:29;2.60;;;1.30;;
69170;SDS011;56279;47.902;12.308;2023-12-22T10:20:31;1.98;;;1.17;;
69170;SDS011;56279;47.902;12.308;2023-12-22T10:22:34;2.25;;;1.30;;
69170;SDS011;56279;47.902;12.308;2023-12-22T10:24:42;3.42;;;1.52;;
69170;SDS011;56279;47.902;12.308;2023-12-22T10:26:44;2.28;;;1.35;;
69170;SDS011;56279;47.902;12.308;2023-12-22T10:28:47;4.20;;;1.53;;
69170;SDS011;56279;47.902;12.308;2023-12-22T10:30:49;2.95;;;1.25;;
69170;SDS011;56279;47.902;12.308;2023-12-22T10:32:51;2.00;;;1.20;;
69170;SDS011;56279;47.902;12.308;2023-12-22T10:34:52;3.15;;;1.10;;
69170;SDS011;56279;47.902;12.308;2023-12-22T10:36:54;2.38;;;1.20;;
69170;SDS011;56279;47.902;12.308;2023-12-22T10:38:56;1.63;;;1.23;;
69170;SDS011;56279;47.902;12.308;2023-12-22T10:40:58;2.15;;;1.00;;
69170;SDS011;56279;47.902;12.308;2023-12-22T10:42:59;2.13;;;1.27;;
69170;SDS011;56279;47.902;12.308;2023-12-22T10:45:01;4.60;;;2.15;;
69170;SDS011;56279;47.902;12.308;2023-12-22T10:47:02;8.38;;;1.67;;
69170;SDS011;56279;47.902;12.308;2023-12-22T10:49:04;3.03;;;1.10;;
69170;SDS011;56279;47.902;12.308;2023-12-22T10:51:09;2.47;;;1.10;;
69170;SDS011;56279;47.902;12.308;2023-12-22T10:53:11;54.90;;;21.95;;
69170;SDS011;56279;47.902;12.308;2023-12-22T10:55:12;39.70;;;19.48;;
69170;SDS011;56279;47.902;12.308;2023-12-22T10:57:17;123.00;;;48.05;;
69170;SDS011;56279;47.902;12.308;2023-12-22T10:59:21;26.13;;;13.70;;
69170;SDS011;56279;47.902;12.308;2023-12-22T11:01:24;9.73;;;5.57;;
69170;SDS011;56279;47.902;12.308;2023-12-22T11:03:30;8.77;;;5.65;;
69170;SDS011;56279;47.902;12.308;2023-12-22T11:05:34;3.88;;;1.60;;
69170;SDS011;56279;47.902;12.308;2023-12-22T11:07:40;35.97;;;15.07;;
69170;SDS011;56279;47.902;12.308;2023-12-22T11:09:47;45.47;;;18.33;;
69170;SDS011;56279;47.902;12.308;2023-12-22T11:11:51;16.42;;;7.53;;
69170;SDS011;56279;47.902;12.308;2023-12-22T11:13:53;17.70;;;8.02;;
69170;SDS011;56279;47.902;12.308;2023-12-22T11:15:57;13.88;;;6.40;;
69170;SDS011;56279;47.902;12.308;2023-12-22T11:17:59;5.72;;;2.92;;
69170;SDS011;56279;47.902;12.308;2023-12-22T11:20:03;4.63;;;2.13;;
69170;SDS011;56279;47.902;12.308;2023-12-22T11:22:06;2.00;;;1.33;;
69170;SDS011;56279;47.902;12.308;2023-12-22T11:24:08;1.98;;;1.38;;
69170;SDS011;56279;47.902;12.308;2023-12-22T11:26:13;1.88;;;1.40;;
69170;SDS011;56279;47.902;12.308;2023-12-22T11:28:16;3.65;;;1.48;;
69170;SDS011;56279;47.902;12.308;2023-12-22T11:30:20;2.87;;;1.20;;
69170;SDS011;56279;47.902;12.308;2023-12-22T11:32:22;2.53;;;1.23;;
69170;SDS011;56279;47.902;12.308;2023-12-22T11:34:25;1.17;;;1.00;;
69170;SDS011;56279;47.902;12.308;2023-12-22T11:36:28;2.35;;;1.38;;
69170;SDS011;56279;47.902;12.308;2023-12-22T11:38:32;2.00;;;1.08;;
69170;SDS011;56279;47.902;12.308;2023-12-22T11:40:33;1.57;;;1.00;;
69170;SDS011;56279;47.902;12.308;2023-12-22T11:42:38;1.77;;;1.20;;
69170;SDS011;56279;47.902;12.308;2023-12-22T11:44:44;2.60;;;1.40;;
69170;SDS011;56279;47.902;12.308;2023-12-22T11:46:45;1.80;;;1.10;;
69170;SDS011;56279;47.902;12.308;2023-12-22T11:48:48;3.13;;;1.40;;
69170;SDS011;56279;47.902;12.308;2023-12-22T11:50:50;2.70;;;1.40;;
69170;SDS011;56279;47.902;12.308;2023-12-22T11:52:52;3.33;;;1.70;;
69170;SDS011;56279;47.902;12.308;2023-12-22T11:54:54;2.72;;;1.42;;
69170;SDS011;56279;47.902;12.308;2023-12-22T11:56:59;2.35;;;1.30;;
69170;SDS011;56279;47.902;12.308;2023-12-22T11:59:00;3.17;;;1.45;;
69170;SDS011;56279;47.902;12.308;2023-12-22T12:01:02;1.83;;;1.30;;
69170;SDS011;56279;47.902;12.308;2023-12-22T12:03:06;2.00;;;1.30;;
69170;SDS011;56279;47.902;12.308;2023-12-22T12:05:08;1.55;;;1.30;;